sensor_id;sensor_type;location;lat;lon;timestamp;P1;durP1;ratioP1;P2;durP2;ratioP2
77591;SDS011;66891;46.884;17.436;2023-09-19T00:00:44;17.45;;;5.82;;
77591;SDS011;66891;46.884;17.436;2023-09-19T00:03:14;18.60;;;5.65;;
77591;SDS011;66891;46.884;17.436;2023-09-19T00:05:43;16.70;;;6.18;;
77591;SDS011;66891;46.884;17.436;2023-09-19T00:08:12;16.20;;;5.00;;
77591;SDS011;66891;46.884;17.436;2023-09-19T00:10:42;15.20;;;5.93;;
77591;SDS011;66891;46.884;17.436;2023-09-19T00:13:09;20.23;;;5.78;;
77591;SDS011;66891;46.884;17.436;2023-09-19T00:15:42;18.90;;;5.65;;
77591;SDS011;66891;46.884;17.436;2023-09-19T00:18:09;19.23;;;5.90;;
77591;SDS011;66891;46.884;17.436;2023-09-19T00:20:36;16.70;;;5.43;;
77591;SDS011;66891;46.884;17.436;2023-09-19T00:23:05;17.63;;;5.57;;
77591;SDS011;66891;46.884;17.436;2023-09-19T00:25:32;17.95;;;5.13;;
77591;SDS011;66891;46.884;17.436;2023-09-19T00:27:59;15.98;;;5.45;;
77591;SDS011;66891;46.884;17.436;2023-09-19T00:30:26;18.88;;;5.82;;
77591;SDS011;66891;46.884;17.436;2023-09-19T00:32:53;15.60;;;5.20;;
77591;SDS011;66891;46.884;17.436;2023-09-19T00:35:21;17.20;;;5.50;;
77591;SDS011;66891;46.884;17.436;2023-09-19T00:37:52;17.73;;;6.03;;
77591;SDS011;66891;46.884;17.436;2023-09-19T00:40:23;15.98;;;5.40;;
77591;SDS011;66891;46.884;17.436;2023-09-19T00:42:50;14.98;;;5.82;;
77591;SDS011;66891;46.884;17.436;2023-09-19T00:45:17;15.40;;;5.80;;
77591;SDS011;66891;46.884;17.436;2023-09-19T00:47:48;15.25;;;5.50;;
77591;SDS011;66891;46.884;17.436;2023-09-19T00:50:16;13.85;;;4.75;;
77591;SDS011;66891;46.884;17.436;2023-09-19T00:52:44;15.77;;;5.35;;
77591;SDS011;66891;46.884;17.436;2023-09-19T00:55:11;16.83;;;5.32;;
77591;SDS011;66891;46.884;17.436;2023-09-19T00:57:41;14.30;;;5.57;;
77591;SDS011;66891;46.884;17.436;2023-09-19T01:00:09;16.85;;;5.40;;
77591;SDS011;66891;46.884;17.436;2023-09-19T01:02:42;15.43;;;5.13;;
77591;SDS011;66891;46.884;17.436;2023-09-19T01:05:10;15.40;;;4.93;;
77591;SDS011;66891;46.884;17.436;2023-09-19T01:07:39;16.48;;;5.82;;
77591;SDS011;66891;46.884;17.436;2023-09-19T01:10:08;16.70;;;4.90;;
77591;SDS011;66891;46.884;17.436;2023-09-19T01:12:39;17.50;;;5.70;;
77591;SDS011;66891;46.884;17.436;2023-09-19T01:15:15;13.77;;;4.90;;
77591;SDS011;66891;46.884;17.436;2023-09-19T01:17:46;13.35;;;4.00;;
77591;SDS011;66891;46.884;17.436;2023-09-19T01:20:19;16.23;;;5.22;;
77591;SDS011;66891;46.884;17.436;2023-09-19T01:22:54;14.70;;;5.33;;
77591;SDS011;66891;46.884;17.436;2023-09-19T01:28:07;14.27;;;4.47;;
77591;SDS011;66891;46.884;17.436;2023-09-19T01:30:42;17.02;;;4.95;;
77591;SDS011;66891;46.884;17.436;2023-09-19T01:33:10;13.77;;;4.80;;
77591;SDS011;66891;46.884;17.436;2023-09-19T01:35:41;15.90;;;5.63;;
77591;SDS011;66891;46.884;17.436;2023-09-19T01:38:08;16.65;;;5.10;;
77591;SDS011;66891;46.884;17.436;2023-09-19T01:40:39;17.10;;;4.82;;
77591;SDS011;66891;46.884;17.436;2023-09-19T01:43:08;16.02;;;4.95;;
77591;SDS011;66891;46.884;17.436;2023-09-19T01:45:37;13.98;;;4.90;;
77591;SDS011;66891;46.884;17.436;2023-09-19T01:48:12;15.47;;;5.10;;
77591;SDS011;66891;46.884;17.436;2023-09-19T01:50:44;12.73;;;5.22;;
77591;SDS011;66891;46.884;17.436;2023-09-19T01:53:14;15.43;;;5.10;;
77591;SDS011;66891;46.884;17.436;2023-09-19T01:55:43;16.52;;;5.28;;
77591;SDS011;66891;46.884;17.436;2023-09-19T01:58:16;17.33;;;4.85;;
77591;SDS011;66891;46.884;17.436;2023-09-19T02:00:44;16.37;;;5.57;;
77591;SDS011;66891;46.884;17.436;2023-09-19T02:03:14;14.90;;;5.25;;
77591;SDS011;66891;46.884;17.436;2023-09-19T02:05:47;16.42;;;5.38;;
77591;SDS011;66891;46.884;17.436;2023-09-19T02:08:15;15.73;;;5.18;;
77591;SDS011;66891;46.884;17.436;2023-09-19T02:10:43;16.10;;;4.75;;
77591;SDS011;66891;46.884;17.436;2023-09-19T02:13:15;16.10;;;6.10;;
77591;SDS011;66891;46.884;17.436;2023-09-19T02:15:43;13.75;;;5.10;;
77591;SDS011;66891;46.884;17.436;2023-09-19T02:18:15;13.15;;;5.63;;
77591;SDS011;66891;46.884;17.436;2023-09-19T02:20:42;12.57;;;4.65;;
77591;SDS011;66891;46.884;17.436;2023-09-19T02:23:09;14.70;;;5.20;;
77591;SDS011;66891;46.884;17.436;2023-09-19T02:25:37;12.90;;;4.93;;
77591;SDS011;66891;46.884;17.436;2023-09-19T02:28:05;12.90;;;5.03;;
77591;SDS011;66891;46.884;17.436;2023-09-19T02:30:32;14.82;;;5.53;;
77591;SDS011;66891;46.884;17.436;2023-09-19T02:32:59;15.52;;;5.50;;
77591;SDS011;66891;46.884;17.436;2023-09-19T02:35:31;14.35;;;4.88;;
77591;SDS011;66891;46.884;17.436;2023-09-19T02:38:03;16.37;;;5.33;;
77591;SDS011;66891;46.884;17.436;2023-09-19T02:40:33;15.80;;;5.32;;
77591;SDS011;66891;46.884;17.436;2023-09-19T02:43:03;13.90;;;5.03;;
77591;SDS011;66891;46.884;17.436;2023-09-19T02:45:30;14.18;;;4.90;;
77591;SDS011;66891;46.884;17.436;2023-09-19T02:47:57;16.80;;;5.32;;
77591;SDS011;66891;46.884;17.436;2023-09-19T02:50:24;15.47;;;5.10;;
77591;SDS011;66891;46.884;17.436;2023-09-19T02:52:53;15.73;;;4.53;;
77591;SDS011;66891;46.884;17.436;2023-09-19T02:55:21;14.18;;;4.90;;
77591;SDS011;66891;46.884;17.436;2023-09-19T02:57:49;12.48;;;5.55;;
77591;SDS011;66891;46.884;17.436;2023-09-19T03:00:16;18.80;;;4.68;;
77591;SDS011;66891;46.884;17.436;2023-09-19T03:02:43;13.70;;;4.97;;
77591;SDS011;66891;46.884;17.436;2023-09-19T03:05:11;13.75;;;5.15;;
77591;SDS011;66891;46.884;17.436;2023-09-19T03:07:38;14.10;;;4.90;;
77591;SDS011;66891;46.884;17.436;2023-09-19T03:10:08;13.40;;;4.90;;
77591;SDS011;66891;46.884;17.436;2023-09-19T03:12:35;14.85;;;5.15;;
77591;SDS011;66891;46.884;17.436;2023-09-19T03:15:02;14.10;;;5.67;;
77591;SDS011;66891;46.884;17.436;2023-09-19T03:17:31;17.48;;;6.57;;
77591;SDS011;66891;46.884;17.436;2023-09-19T03:19:59;17.75;;;5.68;;
77591;SDS011;66891;46.884;17.436;2023-09-19T03:22:26;14.77;;;5.85;;
77591;SDS011;66891;46.884;17.436;2023-09-19T03:24:53;12.85;;;4.80;;
77591;SDS011;66891;46.884;17.436;2023-09-19T03:27:22;14.10;;;5.73;;
77591;SDS011;66891;46.884;17.436;2023-09-19T03:29:49;14.07;;;5.97;;
77591;SDS011;66891;46.884;17.436;2023-09-19T03:32:16;15.43;;;5.95;;
77591;SDS011;66891;46.884;17.436;2023-09-19T03:34:43;8.05;;;2.30;;
77591;SDS011;66891;46.884;17.436;2023-09-19T03:37:10;9.23;;;1.73;;
77591;SDS011;66891;46.884;17.436;2023-09-19T03:39:37;4.80;;;0.97;;
77591;SDS011;66891;46.884;17.436;2023-09-19T03:42:04;8.35;;;0.90;;
77591;SDS011;66891;46.884;17.436;2023-09-19T03:44:35;7.57;;;0.90;;
77591;SDS011;66891;46.884;17.436;2023-09-19T03:47:02;4.53;;;0.90;;
77591;SDS011;66891;46.884;17.436;2023-09-19T03:49:31;3.90;;;0.60;;
77591;SDS011;66891;46.884;17.436;2023-09-19T03:51:58;4.83;;;0.70;;
77591;SDS011;66891;46.884;17.436;2023-09-19T03:54:25;6.70;;;0.90;;
77591;SDS011;66891;46.884;17.436;2023-09-19T03:56:52;5.00;;;0.60;;
77591;SDS011;66891;46.884;17.436;2023-09-19T03:59:19;5.10;;;0.70;;
77591;SDS011;66891;46.884;17.436;2023-09-19T04:01:48;5.50;;;0.75;;
77591;SDS011;66891;46.884;17.436;2023-09-19T04:04:16;6.77;;;0.70;;
77591;SDS011;66891;46.884;17.436;2023-09-19T04:06:45;5.70;;;0.95;;
77591;SDS011;66891;46.884;17.436;2023-09-19T04:09:12;4.68;;;0.60;;
77591;SDS011;66891;46.884;17.436;2023-09-19T04:11:40;8.88;;;0.90;;
77591;SDS011;66891;46.884;17.436;2023-09-19T04:14:07;5.85;;;0.80;;
77591;SDS011;66891;46.884;17.436;2023-09-19T04:16:34;6.20;;;0.70;;
77591;SDS011;66891;46.884;17.436;2023-09-19T04:19:02;5.13;;;0.70;;
77591;SDS011;66891;46.884;17.436;2023-09-19T04:21:30;6.35;;;0.60;;
77591;SDS011;66891;46.884;17.436;2023-09-19T04:23:57;3.60;;;0.50;;
77591;SDS011;66891;46.884;17.436;2023-09-19T04:26:24;5.65;;;0.70;;
77591;SDS011;66891;46.884;17.436;2023-09-19T04:28:52;5.23;;;0.60;;
77591;SDS011;66891;46.884;17.436;2023-09-19T04:31:19;8.60;;;0.73;;
77591;SDS011;66891;46.884;17.436;2023-09-19T04:33:47;4.40;;;0.60;;
77591;SDS011;66891;46.884;17.436;2023-09-19T04:36:16;4.15;;;0.50;;
77591;SDS011;66891;46.884;17.436;2023-09-19T04:39:01;5.30;;;0.70;;
77591;SDS011;66891;46.884;17.436;2023-09-19T04:41:31;4.73;;;0.50;;
77591;SDS011;66891;46.884;17.436;2023-09-19T04:43:58;5.28;;;0.43;;
77591;SDS011;66891;46.884;17.436;2023-09-19T04:46:25;6.00;;;1.10;;
77591;SDS011;66891;46.884;17.436;2023-09-19T04:48:52;3.47;;;0.47;;
77591;SDS011;66891;46.884;17.436;2023-09-19T04:51:21;5.10;;;0.82;;
77591;SDS011;66891;46.884;17.436;2023-09-19T04:53:48;5.57;;;0.57;;
77591;SDS011;66891;46.884;17.436;2023-09-19T04:56:16;4.50;;;0.52;;
77591;SDS011;66891;46.884;17.436;2023-09-19T04:58:43;4.72;;;0.55;;
77591;SDS011;66891;46.884;17.436;2023-09-19T05:01:10;6.00;;;0.68;;
77591;SDS011;66891;46.884;17.436;2023-09-19T05:03:38;5.95;;;0.70;;
77591;SDS011;66891;46.884;17.436;2023-09-19T05:06:06;5.07;;;0.83;;
77591;SDS011;66891;46.884;17.436;2023-09-19T05:08:34;4.78;;;0.70;;
77591;SDS011;66891;46.884;17.436;2023-09-19T05:11:01;5.20;;;0.50;;
77591;SDS011;66891;46.884;17.436;2023-09-19T05:13:29;6.63;;;1.15;;
77591;SDS011;66891;46.884;17.436;2023-09-19T05:15:59;4.78;;;0.80;;
77591;SDS011;66891;46.884;17.436;2023-09-19T05:18:27;5.00;;;0.70;;
77591;SDS011;66891;46.884;17.436;2023-09-19T05:20:53;6.78;;;0.70;;
77591;SDS011;66891;46.884;17.436;2023-09-19T05:23:21;4.10;;;0.55;;
77591;SDS011;66891;46.884;17.436;2023-09-19T05:25:49;5.28;;;0.50;;
77591;SDS011;66891;46.884;17.436;2023-09-19T05:28:18;3.95;;;0.50;;
77591;SDS011;66891;46.884;17.436;2023-09-19T05:30:45;6.03;;;0.70;;
77591;SDS011;66891;46.884;17.436;2023-09-19T05:33:14;5.47;;;0.60;;
77591;SDS011;66891;46.884;17.436;2023-09-19T05:35:43;6.10;;;0.70;;
77591;SDS011;66891;46.884;17.436;2023-09-19T05:38:17;5.68;;;0.68;;
77591;SDS011;66891;46.884;17.436;2023-09-19T05:40:46;6.38;;;0.82;;
77591;SDS011;66891;46.884;17.436;2023-09-19T05:43:15;4.93;;;0.53;;
77591;SDS011;66891;46.884;17.436;2023-09-19T05:45:42;5.13;;;0.70;;
77591;SDS011;66891;46.884;17.436;2023-09-19T05:48:09;5.88;;;0.80;;
77591;SDS011;66891;46.884;17.436;2023-09-19T05:50:36;6.97;;;0.70;;
77591;SDS011;66891;46.884;17.436;2023-09-19T05:53:04;6.20;;;0.68;;
77591;SDS011;66891;46.884;17.436;2023-09-19T05:55:31;6.13;;;0.87;;
77591;SDS011;66891;46.884;17.436;2023-09-19T05:57:58;5.25;;;0.70;;
77591;SDS011;66891;46.884;17.436;2023-09-19T06:00:27;6.22;;;0.95;;
77591;SDS011;66891;46.884;17.436;2023-09-19T06:02:56;5.20;;;1.10;;
77591;SDS011;66891;46.884;17.436;2023-09-19T06:05:24;5.38;;;0.98;;
77591;SDS011;66891;46.884;17.436;2023-09-19T06:07:51;5.60;;;0.63;;
77591;SDS011;66891;46.884;17.436;2023-09-19T06:10:19;5.13;;;0.50;;
77591;SDS011;66891;46.884;17.436;2023-09-19T06:12:47;5.40;;;0.77;;
77591;SDS011;66891;46.884;17.436;2023-09-19T06:15:15;9.23;;;0.70;;
77591;SDS011;66891;46.884;17.436;2023-09-19T06:17:44;5.32;;;0.80;;
77591;SDS011;66891;46.884;17.436;2023-09-19T06:20:13;5.53;;;0.97;;
77591;SDS011;66891;46.884;17.436;2023-09-19T06:22:41;5.15;;;0.70;;
77591;SDS011;66891;46.884;17.436;2023-09-19T06:25:09;8.45;;;1.45;;
77591;SDS011;66891;46.884;17.436;2023-09-19T06:27:38;5.40;;;0.80;;
77591;SDS011;66891;46.884;17.436;2023-09-19T06:30:08;5.43;;;0.80;;
77591;SDS011;66891;46.884;17.436;2023-09-19T06:32:35;6.53;;;1.20;;
77591;SDS011;66891;46.884;17.436;2023-09-19T06:35:05;5.88;;;0.90;;
77591;SDS011;66891;46.884;17.436;2023-09-19T06:37:37;5.90;;;0.90;;
77591;SDS011;66891;46.884;17.436;2023-09-19T06:40:08;7.65;;;1.02;;
77591;SDS011;66891;46.884;17.436;2023-09-19T06:42:42;6.35;;;1.08;;
77591;SDS011;66891;46.884;17.436;2023-09-19T06:45:09;7.70;;;1.13;;
77591;SDS011;66891;46.884;17.436;2023-09-19T06:47:42;6.32;;;1.23;;
77591;SDS011;66891;46.884;17.436;2023-09-19T06:50:11;6.68;;;1.10;;
77591;SDS011;66891;46.884;17.436;2023-09-19T06:52:45;7.10;;;1.27;;
77591;SDS011;66891;46.884;17.436;2023-09-19T06:55:14;6.95;;;1.20;;
77591;SDS011;66891;46.884;17.436;2023-09-19T06:57:42;8.53;;;1.07;;
77591;SDS011;66891;46.884;17.436;2023-09-19T07:00:13;5.60;;;1.23;;
77591;SDS011;66891;46.884;17.436;2023-09-19T07:02:55;6.82;;;0.90;;
77591;SDS011;66891;46.884;17.436;2023-09-19T07:05:24;5.53;;;0.82;;
77591;SDS011;66891;46.884;17.436;2023-09-19T07:07:51;5.55;;;0.70;;
77591;SDS011;66891;46.884;17.436;2023-09-19T07:10:18;5.50;;;1.00;;
77591;SDS011;66891;46.884;17.436;2023-09-19T07:12:47;6.55;;;1.05;;
77591;SDS011;66891;46.884;17.436;2023-09-19T07:15:14;5.60;;;0.77;;
77591;SDS011;66891;46.884;17.436;2023-09-19T07:17:41;5.88;;;1.00;;
77591;SDS011;66891;46.884;17.436;2023-09-19T07:20:08;6.72;;;0.90;;
77591;SDS011;66891;46.884;17.436;2023-09-19T07:22:38;6.07;;;0.90;;
77591;SDS011;66891;46.884;17.436;2023-09-19T07:25:06;6.13;;;0.90;;
77591;SDS011;66891;46.884;17.436;2023-09-19T07:27:33;7.88;;;1.63;;
77591;SDS011;66891;46.884;17.436;2023-09-19T07:30:00;6.63;;;1.40;;
77591;SDS011;66891;46.884;17.436;2023-09-19T07:32:28;6.28;;;1.20;;
77591;SDS011;66891;46.884;17.436;2023-09-19T07:34:55;6.20;;;1.37;;
77591;SDS011;66891;46.884;17.436;2023-09-19T07:37:22;6.40;;;1.13;;
77591;SDS011;66891;46.884;17.436;2023-09-19T07:39:54;6.07;;;1.30;;
77591;SDS011;66891;46.884;17.436;2023-09-19T07:42:24;6.75;;;1.20;;
77591;SDS011;66891;46.884;17.436;2023-09-19T07:44:59;6.97;;;1.30;;
77591;SDS011;66891;46.884;17.436;2023-09-19T07:48:04;4.87;;;0.97;;
77591;SDS011;66891;46.884;17.436;2023-09-19T07:50:34;5.90;;;1.20;;
77591;SDS011;66891;46.884;17.436;2023-09-19T07:56:03;6.50;;;1.50;;
77591;SDS011;66891;46.884;17.436;2023-09-19T07:58:30;5.45;;;1.10;;
77591;SDS011;66891;46.884;17.436;2023-09-19T08:01:01;6.67;;;1.03;;
77591;SDS011;66891;46.884;17.436;2023-09-19T08:03:29;5.43;;;0.80;;
77591;SDS011;66891;46.884;17.436;2023-09-19T08:05:56;8.80;;;0.93;;
77591;SDS011;66891;46.884;17.436;2023-09-19T08:08:24;7.10;;;1.10;;
77591;SDS011;66891;46.884;17.436;2023-09-19T08:10:53;4.57;;;0.80;;
77591;SDS011;66891;46.884;17.436;2023-09-19T08:13:21;9.27;;;1.00;;
77591;SDS011;66891;46.884;17.436;2023-09-19T08:15:49;4.65;;;0.95;;
77591;SDS011;66891;46.884;17.436;2023-09-19T08:18:17;7.13;;;0.95;;
77591;SDS011;66891;46.884;17.436;2023-09-19T08:20:49;6.13;;;0.88;;
77591;SDS011;66891;46.884;17.436;2023-09-19T08:23:27;4.43;;;0.80;;
77591;SDS011;66891;46.884;17.436;2023-09-19T08:25:56;4.80;;;0.90;;
77591;SDS011;66891;46.884;17.436;2023-09-19T08:28:28;4.63;;;0.88;;
77591;SDS011;66891;46.884;17.436;2023-09-19T08:31:01;4.25;;;0.70;;
77591;SDS011;66891;46.884;17.436;2023-09-19T08:33:29;6.05;;;1.10;;
77591;SDS011;66891;46.884;17.436;2023-09-19T08:35:57;6.45;;;1.13;;
77591;SDS011;66891;46.884;17.436;2023-09-19T08:38:24;4.90;;;0.83;;
77591;SDS011;66891;46.884;17.436;2023-09-19T08:40:57;5.00;;;0.70;;
77591;SDS011;66891;46.884;17.436;2023-09-19T08:43:24;5.95;;;0.82;;
77591;SDS011;66891;46.884;17.436;2023-09-19T08:45:55;6.00;;;1.10;;
77591;SDS011;66891;46.884;17.436;2023-09-19T08:48:24;5.03;;;0.80;;
77591;SDS011;66891;46.884;17.436;2023-09-19T08:50:54;5.67;;;1.07;;
77591;SDS011;66891;46.884;17.436;2023-09-19T08:53:26;5.45;;;0.85;;
77591;SDS011;66891;46.884;17.436;2023-09-19T08:55:54;8.32;;;1.10;;
77591;SDS011;66891;46.884;17.436;2023-09-19T08:58:26;5.63;;;0.90;;
77591;SDS011;66891;46.884;17.436;2023-09-19T09:00:59;5.20;;;1.00;;
77591;SDS011;66891;46.884;17.436;2023-09-19T09:03:29;5.97;;;1.20;;
77591;SDS011;66891;46.884;17.436;2023-09-19T09:06:02;5.13;;;0.80;;
77591;SDS011;66891;46.884;17.436;2023-09-19T09:08:30;6.10;;;1.25;;
77591;SDS011;66891;46.884;17.436;2023-09-19T09:10:58;4.80;;;0.80;;
77591;SDS011;66891;46.884;17.436;2023-09-19T09:13:25;5.45;;;0.80;;
77591;SDS011;66891;46.884;17.436;2023-09-19T09:15:53;6.60;;;1.20;;
77591;SDS011;66891;46.884;17.436;2023-09-19T09:18:22;5.70;;;1.00;;
77591;SDS011;66891;46.884;17.436;2023-09-19T09:20:49;7.05;;;1.00;;
77591;SDS011;66891;46.884;17.436;2023-09-19T09:23:16;5.78;;;0.98;;
77591;SDS011;66891;46.884;17.436;2023-09-19T09:25:47;5.55;;;0.90;;
77591;SDS011;66891;46.884;17.436;2023-09-19T09:28:15;5.37;;;0.80;;
77591;SDS011;66891;46.884;17.436;2023-09-19T09:30:46;5.50;;;1.20;;
77591;SDS011;66891;46.884;17.436;2023-09-19T09:33:14;5.43;;;1.05;;
77591;SDS011;66891;46.884;17.436;2023-09-19T09:35:50;4.68;;;0.75;;
77591;SDS011;66891;46.884;17.436;2023-09-19T09:38:19;4.50;;;1.23;;
77591;SDS011;66891;46.884;17.436;2023-09-19T09:40:47;4.93;;;0.70;;
77591;SDS011;66891;46.884;17.436;2023-09-19T09:43:25;3.78;;;0.70;;
77591;SDS011;66891;46.884;17.436;2023-09-19T09:46:12;4.70;;;0.90;;
77591;SDS011;66891;46.884;17.436;2023-09-19T09:49:25;4.07;;;0.70;;
77591;SDS011;66891;46.884;17.436;2023-09-19T09:52:00;4.07;;;0.80;;
77591;SDS011;66891;46.884;17.436;2023-09-19T09:54:28;4.73;;;0.70;;
77591;SDS011;66891;46.884;17.436;2023-09-19T09:57:04;5.35;;;0.90;;
77591;SDS011;66891;46.884;17.436;2023-09-19T09:59:44;3.95;;;0.77;;
77591;SDS011;66891;46.884;17.436;2023-09-19T10:02:38;3.75;;;0.70;;
77591;SDS011;66891;46.884;17.436;2023-09-19T10:05:37;5.47;;;0.77;;
77591;SDS011;66891;46.884;17.436;2023-09-19T10:08:14;4.37;;;0.90;;
77591;SDS011;66891;46.884;17.436;2023-09-19T10:10:45;4.00;;;0.70;;
77591;SDS011;66891;46.884;17.436;2023-09-19T10:13:13;5.05;;;0.82;;
77591;SDS011;66891;46.884;17.436;2023-09-19T10:16:01;6.85;;;1.17;;
77591;SDS011;66891;46.884;17.436;2023-09-19T10:19:28;4.93;;;1.20;;
77591;SDS011;66891;46.884;17.436;2023-09-19T10:22:08;4.97;;;0.70;;
77591;SDS011;66891;46.884;17.436;2023-09-19T10:24:38;4.45;;;1.02;;
77591;SDS011;66891;46.884;17.436;2023-09-19T10:27:27;5.47;;;0.80;;
77591;SDS011;66891;46.884;17.436;2023-09-19T10:31:15;4.82;;;0.90;;
77591;SDS011;66891;46.884;17.436;2023-09-19T10:33:12;4.70;;;1.10;;
77591;SDS011;66891;46.884;17.436;2023-09-19T10:35:41;5.20;;;0.90;;
77591;SDS011;66891;46.884;17.436;2023-09-19T10:38:09;5.57;;;0.77;;
77591;SDS011;66891;46.884;17.436;2023-09-19T10:40:38;7.93;;;1.52;;
77591;SDS011;66891;46.884;17.436;2023-09-19T10:43:14;4.88;;;0.90;;
77591;SDS011;66891;46.884;17.436;2023-09-19T10:45:46;5.57;;;1.25;;
77591;SDS011;66891;46.884;17.436;2023-09-19T10:48:16;8.07;;;1.00;;
77591;SDS011;66891;46.884;17.436;2023-09-19T10:50:48;6.55;;;1.25;;
77591;SDS011;66891;46.884;17.436;2023-09-19T10:53:19;6.45;;;1.13;;
77591;SDS011;66891;46.884;17.436;2023-09-19T10:59:05;4.22;;;0.95;;
77591;SDS011;66891;46.884;17.436;2023-09-19T11:01:40;5.13;;;1.10;;
77591;SDS011;66891;46.884;17.436;2023-09-19T11:04:21;5.03;;;1.00;;
77591;SDS011;66891;46.884;17.436;2023-09-19T11:06:59;5.30;;;1.38;;
77591;SDS011;66891;46.884;17.436;2023-09-19T11:09:31;5.90;;;1.08;;
77591;SDS011;66891;46.884;17.436;2023-09-19T11:12:09;5.15;;;1.10;;
77591;SDS011;66891;46.884;17.436;2023-09-19T11:14:41;5.20;;;1.30;;
77591;SDS011;66891;46.884;17.436;2023-09-19T11:25:44;5.07;;;1.30;;
77591;SDS011;66891;46.884;17.436;2023-09-19T11:31:44;5.38;;;1.42;;
77591;SDS011;66891;46.884;17.436;2023-09-19T11:36:57;5.43;;;1.35;;
77591;SDS011;66891;46.884;17.436;2023-09-19T11:39:27;6.53;;;1.60;;
77591;SDS011;66891;46.884;17.436;2023-09-19T11:41:54;5.53;;;1.50;;
77591;SDS011;66891;46.884;17.436;2023-09-19T11:44:33;6.13;;;1.58;;
77591;SDS011;66891;46.884;17.436;2023-09-19T11:47:02;5.85;;;1.13;;
77591;SDS011;66891;46.884;17.436;2023-09-19T11:49:32;4.85;;;1.25;;
77591;SDS011;66891;46.884;17.436;2023-09-19T11:52:00;5.93;;;1.55;;
77591;SDS011;66891;46.884;17.436;2023-09-19T11:54:28;6.90;;;1.90;;
77591;SDS011;66891;46.884;17.436;2023-09-19T11:56:58;5.72;;;1.60;;
77591;SDS011;66891;46.884;17.436;2023-09-19T11:59:29;5.57;;;1.20;;
77591;SDS011;66891;46.884;17.436;2023-09-19T12:01:57;4.85;;;1.55;;
77591;SDS011;66891;46.884;17.436;2023-09-19T12:04:37;7.20;;;1.55;;
77591;SDS011;66891;46.884;17.436;2023-09-19T12:07:05;5.13;;;1.67;;
77591;SDS011;66891;46.884;17.436;2023-09-19T12:09:38;5.13;;;1.42;;
77591;SDS011;66891;46.884;17.436;2023-09-19T12:12:10;4.82;;;1.27;;
77591;SDS011;66891;46.884;17.436;2023-09-19T12:14:47;4.35;;;1.55;;
77591;SDS011;66891;46.884;17.436;2023-09-19T12:17:14;4.35;;;1.05;;
77591;SDS011;66891;46.884;17.436;2023-09-19T12:19:50;5.97;;;1.27;;
77591;SDS011;66891;46.884;17.436;2023-09-19T12:22:18;5.20;;;1.45;;
77591;SDS011;66891;46.884;17.436;2023-09-19T12:24:47;5.38;;;1.40;;
77591;SDS011;66891;46.884;17.436;2023-09-19T12:27:14;5.68;;;1.42;;
77591;SDS011;66891;46.884;17.436;2023-09-19T12:29:42;4.63;;;1.45;;
77591;SDS011;66891;46.884;17.436;2023-09-19T12:32:10;5.37;;;1.60;;
77591;SDS011;66891;46.884;17.436;2023-09-19T12:34:37;5.75;;;1.52;;
77591;SDS011;66891;46.884;17.436;2023-09-19T12:37:11;4.60;;;1.73;;
77591;SDS011;66891;46.884;17.436;2023-09-19T12:39:39;4.60;;;1.48;;
77591;SDS011;66891;46.884;17.436;2023-09-19T12:42:08;5.45;;;1.33;;
77591;SDS011;66891;46.884;17.436;2023-09-19T12:44:39;5.40;;;1.50;;
77591;SDS011;66891;46.884;17.436;2023-09-19T12:47:09;4.97;;;1.38;;
77591;SDS011;66891;46.884;17.436;2023-09-19T12:49:41;5.32;;;1.30;;
77591;SDS011;66891;46.884;17.436;2023-09-19T12:52:25;5.05;;;1.50;;
77591;SDS011;66891;46.884;17.436;2023-09-19T12:54:52;5.28;;;1.90;;
77591;SDS011;66891;46.884;17.436;2023-09-19T12:57:23;5.47;;;1.27;;
77591;SDS011;66891;46.884;17.436;2023-09-19T12:59:55;4.45;;;1.10;;
77591;SDS011;66891;46.884;17.436;2023-09-19T13:02:22;4.35;;;1.00;;
77591;SDS011;66891;46.884;17.436;2023-09-19T13:04:54;4.97;;;1.27;;
77591;SDS011;66891;46.884;17.436;2023-09-19T13:07:43;5.20;;;1.10;;
77591;SDS011;66891;46.884;17.436;2023-09-19T13:10:12;4.47;;;1.30;;
77591;SDS011;66891;46.884;17.436;2023-09-19T13:12:43;5.07;;;1.27;;
77591;SDS011;66891;46.884;17.436;2023-09-19T13:15:14;6.55;;;1.38;;
77591;SDS011;66891;46.884;17.436;2023-09-19T13:17:42;6.10;;;1.20;;
77591;SDS011;66891;46.884;17.436;2023-09-19T13:20:20;4.97;;;1.20;;
77591;SDS011;66891;46.884;17.436;2023-09-19T13:22:52;9.47;;;4.23;;
77591;SDS011;66891;46.884;17.436;2023-09-19T13:25:37;5.40;;;1.17;;
77591;SDS011;66891;46.884;17.436;2023-09-19T13:28:07;5.10;;;1.30;;
77591;SDS011;66891;46.884;17.436;2023-09-19T13:30:36;5.68;;;1.13;;
77591;SDS011;66891;46.884;17.436;2023-09-19T13:33:04;5.07;;;1.50;;
77591;SDS011;66891;46.884;17.436;2023-09-19T13:35:33;5.00;;;1.30;;
77591;SDS011;66891;46.884;17.436;2023-09-19T13:38:01;4.65;;;1.25;;
77591;SDS011;66891;46.884;17.436;2023-09-19T13:40:28;4.03;;;1.08;;
77591;SDS011;66891;46.884;17.436;2023-09-19T13:42:58;5.43;;;1.80;;
77591;SDS011;66891;46.884;17.436;2023-09-19T13:45:25;4.30;;;1.05;;
77591;SDS011;66891;46.884;17.436;2023-09-19T13:47:53;5.33;;;1.20;;
77591;SDS011;66891;46.884;17.436;2023-09-19T13:50:20;4.50;;;1.10;;
77591;SDS011;66891;46.884;17.436;2023-09-19T13:52:51;5.43;;;1.17;;
77591;SDS011;66891;46.884;17.436;2023-09-19T13:55:19;4.32;;;1.17;;
77591;SDS011;66891;46.884;17.436;2023-09-19T13:57:47;5.20;;;1.13;;
77591;SDS011;66891;46.884;17.436;2023-09-19T14:00:16;5.33;;;1.40;;
77591;SDS011;66891;46.884;17.436;2023-09-19T14:02:44;3.85;;;0.90;;
77591;SDS011;66891;46.884;17.436;2023-09-19T14:05:12;4.63;;;1.05;;
77591;SDS011;66891;46.884;17.436;2023-09-19T14:07:41;4.78;;;1.05;;
77591;SDS011;66891;46.884;17.436;2023-09-19T14:10:11;6.18;;;1.20;;
77591;SDS011;66891;46.884;17.436;2023-09-19T14:12:40;5.23;;;1.10;;
77591;SDS011;66891;46.884;17.436;2023-09-19T14:15:11;5.97;;;1.30;;
77591;SDS011;66891;46.884;17.436;2023-09-19T14:17:38;4.82;;;1.30;;
77591;SDS011;66891;46.884;17.436;2023-09-19T14:20:06;5.80;;;1.38;;
77591;SDS011;66891;46.884;17.436;2023-09-19T14:22:34;6.35;;;1.15;;
77591;SDS011;66891;46.884;17.436;2023-09-19T14:25:01;5.40;;;1.30;;
77591;SDS011;66891;46.884;17.436;2023-09-19T14:27:32;4.78;;;1.27;;
77591;SDS011;66891;46.884;17.436;2023-09-19T14:30:03;4.38;;;0.90;;
77591;SDS011;66891;46.884;17.436;2023-09-19T14:32:31;5.72;;;1.20;;
77591;SDS011;66891;46.884;17.436;2023-09-19T14:34:58;5.07;;;1.15;;
77591;SDS011;66891;46.884;17.436;2023-09-19T14:37:25;5.07;;;1.30;;
77591;SDS011;66891;46.884;17.436;2023-09-19T14:39:54;4.82;;;1.40;;
77591;SDS011;66891;46.884;17.436;2023-09-19T14:42:21;6.38;;;1.23;;
77591;SDS011;66891;46.884;17.436;2023-09-19T14:44:50;4.45;;;0.98;;
77591;SDS011;66891;46.884;17.436;2023-09-19T14:47:18;6.20;;;1.40;;
77591;SDS011;66891;46.884;17.436;2023-09-19T14:49:45;5.73;;;1.40;;
77591;SDS011;66891;46.884;17.436;2023-09-19T14:52:12;5.63;;;1.30;;
77591;SDS011;66891;46.884;17.436;2023-09-19T14:54:42;4.80;;;0.80;;
77591;SDS011;66891;46.884;17.436;2023-09-19T14:57:10;5.03;;;1.05;;
77591;SDS011;66891;46.884;17.436;2023-09-19T14:59:37;4.75;;;1.10;;
77591;SDS011;66891;46.884;17.436;2023-09-19T15:02:04;4.80;;;1.60;;
77591;SDS011;66891;46.884;17.436;2023-09-19T15:04:32;5.63;;;1.08;;
77591;SDS011;66891;46.884;17.436;2023-09-19T15:07:00;5.45;;;1.30;;
77591;SDS011;66891;46.884;17.436;2023-09-19T15:09:28;3.95;;;1.08;;
77591;SDS011;66891;46.884;17.436;2023-09-19T15:11:58;4.40;;;1.30;;